Time;durP1;ratioP1;P1;durP2;ratioP2;P2;SDS_P1;SDS_P2;PMS_P1;PMS_P2;Temp;Humidity;BMP_temperature;BMP_pressure;BME280_temperature;BME280_humidity;BME280_pressure;Samples;Min_cycle;Max_cycle;Signal;HPM_P1;HPM_P2
2022/05/16 00:00:30;;;;;;;11.05;8.10;;;;;;;-144.47;100.00;61586.06;5093455;28;20108;-78
2022/05/16 00:02:59;;;;;;;11.32;8.68;;;;;;;-144.47;100.00;61586.06;5092225;28;20043;-78
2022/05/16 00:05:25;;;;;;;10.90;8.20;;;;;;;187.31;100.00;61586.06;5092374;28;20040;-77
2022/05/16 00:07:50;;;;;;;9.63;8.32;;;;;;;-144.47;100.00;61586.06;5091258;28;20035;-77
2022/05/16 00:10:16;;;;;;;10.05;8.77;;;;;;;-144.47;100.00;61586.06;5091848;28;20024;-77
2022/05/16 00:12:42;;;;;;;15.15;8.95;;;;;;;187.31;100.00;61586.06;5091449;28;20040;-77
2022/05/16 00:15:09;;;;;;;10.35;9.00;;;;;;;-144.47;100.00;61586.06;5090415;28;20107;-77
2022/05/16 00:17:35;;;;;;;12.80;8.77;;;;;;;-144.47;100.00;61586.06;5090543;28;20084;-79
2022/05/16 00:20:01;;;;;;;13.50;8.60;;;;;;;187.31;100.00;61586.06;5087627;28;20028;-78
2022/05/16 00:22:27;;;;;;;14.75;9.60;;;;;;;187.31;100.00;61586.06;5091479;28;20033;-79
2022/05/16 00:24:53;;;;;;;11.68;8.98;;;;;;;187.31;100.00;61586.06;5091411;28;20385;-79
2022/05/16 00:27:18;;;;;;;10.13;8.38;;;;;;;187.31;100.00;61586.06;5091913;28;20369;-77
2022/05/16 00:29:44;;;;;;;10.50;8.90;;;;;;;19.97;100.00;61586.06;5091475;28;20054;-77
2022/05/16 00:32:10;;;;;;;11.77;8.55;;;;;;;187.31;100.00;61586.06;5091918;28;20024;-77
2022/05/16 00:34:36;;;;;;;8.65;7.95;;;;;;;187.31;100.00;61586.06;5091238;28;20101;-78
2022/05/16 00:37:02;;;;;;;11.30;9.30;;;;;;;-144.47;100.00;61586.06;5087286;28;20028;-78
2022/05/16 00:39:29;;;;;;;10.48;9.20;;;;;;;-144.47;100.00;61586.06;5091408;28;20032;-79
2022/05/16 00:41:54;;;;;;;9.52;8.63;;;;;;;187.31;100.00;61586.06;5091077;28;20105;-77
2022/05/16 00:44:21;;;;;;;10.00;8.57;;;;;;;-144.47;100.00;61586.06;5091436;28;20443;-77
2022/05/16 00:46:48;;;;;;;10.18;8.43;;;;;;;-144.47;100.00;61586.06;5091140;28;20063;-78
2022/05/16 00:49:22;;;;;;;12.30;8.82;;;;;;;187.31;100.00;61586.06;5091260;28;20032;-78
2022/05/16 00:51:52;;;;;;;9.07;8.18;;;;;;;18.91;100.00;61586.06;5090655;28;20380;-78
2022/05/16 00:54:30;;;;;;;10.25;8.93;;;;;;;-144.47;100.00;61586.06;5091362;28;20545;-78
2022/05/16 00:57:01;;;;;;;8.95;8.13;;;;;;;187.31;100.00;61586.06;5090969;28;20031;-80
2022/05/16 00:59:53;;;;;;;10.68;8.40;;;;;;;187.31;100.00;61586.06;5088829;28;20101;-79
2022/05/16 01:05:07;;;;;;;12.15;9.88;;;;;;;-144.47;100.00;61586.06;5086916;28;20072;-78
2022/05/16 01:07:37;;;;;;;9.52;8.63;;;;;;;-144.47;100.00;61586.06;5090762;28;20020;-79
2022/05/16 01:10:05;;;;;;;12.52;9.05;;;;;;;-144.47;100.00;61586.06;5085996;28;20050;-78
2022/05/16 01:12:39;;;;;;;8.95;7.97;;;;;;;187.31;100.00;61586.06;5086988;28;20504;-79
2022/05/16 01:15:08;;;;;;;11.25;8.40;;;;;;;18.44;100.00;81437.38;5087693;28;20359;-79
2022/05/16 01:17:33;;;;;;;11.60;8.88;;;;;;;187.31;100.00;61586.06;5087098;28;20032;-80
2022/05/16 01:19:59;;;;;;;15.68;10.32;;;;;;;-144.47;100.00;61586.06;5089250;28;20035;-79
2022/05/16 01:22:24;;;;;;;11.98;9.55;;;;;;;-144.47;100.00;61586.06;5090301;28;20564;-78
2022/05/16 01:24:52;;;;;;;13.32;9.85;;;;;;;-144.47;100.00;61586.06;5090597;28;20024;-79
2022/05/16 01:27:18;;;;;;;9.93;8.98;;;;;;;18.17;100.00;61586.06;5091887;28;20069;-78
2022/05/16 01:29:44;;;;;;;10.95;9.32;;;;;;;-144.47;100.00;61586.06;5091151;28;20024;-78
2022/05/16 01:32:13;;;;;;;10.30;9.20;;;;;;;-144.47;100.00;61586.06;5091668;28;20081;-79
2022/05/16 01:34:39;;;;;;;10.57;9.55;;;;;;;-144.47;100.00;61586.06;5091344;28;20609;-79
2022/05/16 01:37:07;;;;;;;10.65;9.55;;;;;;;-144.47;100.00;61586.06;5091038;28;20520;-78
2022/05/16 01:39:33;;;;;;;10.50;9.23;;;;;;;-144.47;100.00;61586.06;5090921;28;20070;-77
2022/05/16 01:41:58;;;;;;;10.50;9.40;;;;;;;-144.47;100.00;61586.06;5091213;28;20032;-78
2022/05/16 01:44:24;;;;;;;16.02;10.15;;;;;;;-144.47;100.00;61586.06;5091206;28;20024;-78
2022/05/16 01:46:49;;;;;;;11.43;9.98;;;;;;;-144.47;100.00;61586.06;5090894;28;20097;-77
2022/05/16 01:49:15;;;;;;;14.63;10.15;;;;;;;-144.47;100.00;61586.06;5091047;28;20476;-77
2022/05/16 01:51:41;;;;;;;12.15;10.27;;;;;;;-144.47;100.00;61586.06;5090534;28;20028;-78
2022/05/16 01:54:07;;;;;;;15.35;10.93;;;;;;;-144.47;100.00;61586.06;5090905;28;20051;-78
2022/05/16 01:56:34;;;;;;;14.60;9.63;;;;;;;-144.47;100.00;61586.06;5090747;28;20066;-79
2022/05/16 01:59:01;;;;;;;11.90;9.75;;;;;;;-144.47;100.00;61586.06;5090147;28;20035;-79
2022/05/16 02:01:27;;;;;;;13.18;10.05;;;;;;;-144.47;100.00;61586.06;5090433;28;20071;-79
2022/05/16 02:03:53;;;;;;;13.38;10.77;;;;;;;-144.47;100.00;61586.06;5090131;28;20032;-79
2022/05/16 02:06:19;;;;;;;11.82;10.57;;;;;;;-144.47;100.00;61586.06;5090502;28;20054;-78
2022/05/16 02:08:45;;;;;;;14.10;10.88;;;;;;;-144.47;100.00;61586.06;5088808;28;20044;-78
2022/05/16 02:11:11;;;;;;;11.38;9.93;;;;;;;17.85;100.00;61586.06;5089828;28;20032;-79
2022/05/16 02:13:40;;;;;;;11.30;10.32;;;;;;;-144.47;100.00;61586.06;5089496;28;20078;-78
2022/05/16 02:16:07;;;;;;;11.95;10.30;;;;;;;-144.47;100.00;61586.06;5091595;28;20502;-79
2022/05/16 02:18:32;;;;;;;14.23;10.50;;;;;;;-144.47;100.00;61586.06;5090007;28;20067;-79
2022/05/16 02:26:29;;;;;;;13.77;11.68;;;;;;;17.50;100.00;61586.06;5093739;28;20028;-80
2022/05/16 02:28:54;;;;;;;12.48;10.40;;;;;;;-144.47;100.00;61586.06;5093749;28;20128;-79
2022/05/16 02:31:20;;;;;;;17.70;10.65;;;;;;;-144.47;100.00;61586.06;5094638;28;20454;-79
2022/05/16 02:33:46;;;;;;;16.70;11.48;;;;;;;-144.47;100.00;61586.06;5094320;28;20035;-79
2022/05/16 02:36:12;;;;;;;13.20;10.93;;;;;;;-144.47;100.00;61586.06;5094744;28;20031;-79
2022/05/16 02:38:38;;;;;;;13.02;10.70;;;;;;;17.59;100.00;81293.41;5093799;28;20395;-79
2022/05/16 02:41:03;;;;;;;12.02;10.70;;;;;;;-144.47;100.00;61586.06;5094341;28;20042;-79
2022/05/16 02:43:29;;;;;;;12.40;11.10;;;;;;;-144.47;100.00;61586.06;5094386;28;20024;-79
2022/05/16 02:45:54;;;;;;;14.70;11.35;;;;;;;-144.47;100.00;61586.06;5093869;28;20038;-79
2022/05/16 02:48:19;;;;;;;12.23;11.00;;;;;;;-144.47;100.00;61586.06;5094281;28;20028;-79
2022/05/16 02:50:45;;;;;;;16.52;10.95;;;;;;;-144.47;100.00;61586.06;5093872;28;20441;-79
2022/05/16 02:53:10;;;;;;;15.52;11.30;;;;;;;-144.47;100.00;61586.06;5093820;28;20115;-78
2022/05/16 02:55:36;;;;;;;15.05;11.55;;;;;;;17.51;100.00;61586.06;5092799;28;20480;-78
2022/05/16 02:58:02;;;;;;;13.50;10.50;;;;;;;17.36;100.00;61586.06;5092693;28;20177;-78
2022/05/16 03:00:27;;;;;;;12.48;11.20;;;;;;;-144.47;100.00;61586.06;5092884;28;20116;-78
2022/05/16 03:02:53;;;;;;;11.43;10.32;;;;;;;21.26;100.00;61586.06;5092500;28;20123;-78
2022/05/16 03:05:18;;;;;;;12.52;10.98;;;;;;;-144.47;100.00;61586.06;5093065;28;20032;-79
2022/05/16 03:07:44;;;;;;;11.88;10.57;;;;;;;-144.47;100.00;61586.06;5092220;28;20042;-78
2022/05/16 03:10:15;;;;;;;13.35;11.32;;;;;;;-144.47;100.00;61586.06;5093587;28;20028;-79
2022/05/16 03:12:42;;;;;;;13.88;10.98;;;;;;;-144.47;100.00;61586.06;5093481;28;20126;-79
2022/05/16 03:15:08;;;;;;;15.45;11.60;;;;;;;-144.47;100.00;61586.06;5095559;28;20032;-78
2022/05/16 03:17:33;;;;;;;15.48;11.98;;;;;;;-144.47;100.00;61586.06;5099854;28;20051;-77
2022/05/16 03:20:00;;;;;;;13.10;11.52;;;;;;;17.05;100.00;61586.06;5095839;28;20119;-78
2022/05/16 03:22:25;;;;;;;13.13;11.73;;;;;;;-144.47;100.00;61586.06;5092120;28;20032;-78
2022/05/16 03:24:51;;;;;;;14.77;11.32;;;;;;;-144.47;100.00;61586.06;5092196;28;20536;-78
2022/05/16 03:27:16;;;;;;;14.32;11.13;;;;;;;-144.47;100.00;61586.06;5092278;28;20228;-78
2022/05/16 03:29:42;;;;;;;13.32;11.20;;;;;;;-144.47;100.00;61586.06;5091914;28;20032;-78
2022/05/16 03:32:07;;;;;;;13.43;11.65;;;;;;;-144.47;100.00;61586.06;5092361;28;20059;-78
2022/05/16 03:34:33;;;;;;;12.23;11.05;;;;;;;-144.47;100.00;61586.06;5090596;28;20035;-79
2022/05/16 03:36:58;;;;;;;12.52;11.25;;;;;;;16.65;100.00;61586.06;5091444;28;20032;-78
2022/05/16 03:42:08;;;;;;;12.73;11.43;;;;;;;-144.47;100.00;61586.06;5088464;28;20032;-78
2022/05/16 03:44:33;;;;;;;13.10;11.68;;;;;;;-144.47;100.00;61586.06;5091487;28;20085;-78
2022/05/16 03:46:59;;;;;;;14.75;11.27;;;;;;;16.60;100.00;61586.06;5092169;28;20032;-78
2022/05/16 03:49:24;;;;;;;12.00;10.70;;;;;;;-144.47;100.00;61586.06;5092720;28;20035;-78
2022/05/16 03:51:50;;;;;;;12.02;10.98;;;;;;;-144.47;100.00;61586.06;5091948;28;20490;-78
2022/05/16 03:54:17;;;;;;;15.95;12.23;;;;;;;-144.47;100.00;61586.06;5093023;28;20028;-79
2022/05/16 03:56:43;;;;;;;11.55;10.35;;;;;;;-144.47;100.00;61586.06;5092516;28;20059;-78
2022/05/16 03:59:11;;;;;;;11.05;10.05;;;;;;;-144.47;100.00;61586.06;5092399;28;20142;-79
2022/05/16 04:01:37;;;;;;;14.02;11.00;;;;;;;-144.47;100.00;61586.06;5092284;28;20456;-79
2022/05/16 04:04:03;;;;;;;12.60;11.30;;;;;;;-144.47;100.00;61586.06;5088558;28;20024;-79
2022/05/16 04:06:28;;;;;;;13.20;11.15;;;;;;;-144.47;100.00;61586.06;5092410;28;20111;-80
2022/05/16 04:08:54;;;;;;;13.55;12.05;;;;;;;-144.47;100.00;61586.06;5091716;28;20365;-80
2022/05/16 04:11:21;;;;;;;12.98;11.65;;;;;;;-144.47;100.00;61586.06;5092835;28;20035;-78
2022/05/16 04:13:47;;;;;;;13.77;11.18;;;;;;;-144.47;100.00;61586.06;5091953;28;20035;-77
2022/05/16 04:16:13;;;;;;;13.43;11.10;;;;;;;-144.47;100.00;61586.06;5092128;28;20044;-77
2022/05/16 04:18:40;;;;;;;12.98;11.73;;;;;;;-144.47;100.00;61586.06;5090335;28;20390;-77
2022/05/16 04:21:06;;;;;;;15.25;11.80;;;;;;;-144.47;100.00;61586.06;5091974;28;20112;-77
2022/05/16 04:23:32;;;;;;;13.23;11.52;;;;;;;-144.47;100.00;61586.06;5087613;28;20464;-78
2022/05/16 04:25:57;;;;;;;14.52;10.98;;;;;;;-144.47;100.00;61586.06;5091843;28;20036;-77
2022/05/16 04:28:24;;;;;;;12.13;10.95;;;;;;;-144.47;100.00;61586.06;5091964;28;20081;-77
2022/05/16 04:30:50;;;;;;;12.07;10.40;;;;;;;-144.47;100.00;61586.06;5090202;28;20036;-78
2022/05/16 04:33:17;;;;;;;11.70;10.43;;;;;;;16.78;100.00;61586.06;5091837;28;20032;-77
2022/05/16 04:35:43;;;;;;;11.05;9.95;;;;;;;21.26;100.00;61586.06;5091440;28;20395;-77
2022/05/16 04:38:08;;;;;;;14.10;11.10;;;;;;;187.31;100.00;61586.06;5090632;28;20028;-78
2022/05/16 04:40:34;;;;;;;15.05;10.40;;;;;;;-144.47;100.00;61586.06;5091218;28;20027;-78
2022/05/16 04:42:59;;;;;;;13.95;10.90;;;;;;;18.67;100.00;61586.06;5090792;28;20036;-78
2022/05/16 04:45:28;;;;;;;12.85;11.30;;;;;;;18.67;100.00;61586.06;5091196;28;20092;-77
2022/05/16 04:48:01;;;;;;;12.98;11.05;;;;;;;-144.47;100.00;61586.06;5090605;28;20047;-79
2022/05/16 04:50:34;;;;;;;14.20;11.18;;;;;;;-144.47;100.00;61586.06;5091448;28;20044;-77
2022/05/16 04:53:01;;;;;;;15.80;11.35;;;;;;;187.31;100.00;61586.06;5091049;28;20036;-78
2022/05/16 04:55:28;;;;;;;14.77;12.05;;;;;;;-144.47;100.00;61586.06;5091397;28;20032;-78
2022/05/16 04:57:53;;;;;;;13.88;11.68;;;;;;;-144.47;100.00;61586.06;5090992;28;20051;-78
2022/05/16 05:00:21;;;;;;;14.43;12.90;;;;;;;-144.47;100.00;61586.06;5091126;28;20393;-78
2022/05/16 05:02:47;;;;;;;21.20;12.07;;;;;;;184.71;100.00;61586.06;5090877;28;20028;-78
2022/05/16 05:05:14;;;;;;;15.18;11.40;;;;;;;184.71;100.00;61586.06;5091322;28;20039;-77
2022/05/16 05:07:40;;;;;;;12.40;10.50;;;;;;;-144.47;100.00;61586.06;5090227;28;20040;-79
2022/05/16 05:15:38;;;;;;;15.18;10.27;;;;;;;187.31;100.00;61586.06;5087533;28;20036;-81
2022/05/16 05:18:05;;;;;;;12.13;10.75;;;;;;;187.31;100.00;61586.06;5087534;28;20111;-83
2022/05/16 05:20:34;;;;;;;12.98;11.05;;;;;;;18.67;100.00;61586.06;5091186;28;20043;-82
2022/05/16 05:23:03;;;;;;;13.77;10.50;;;;;;;187.31;100.00;61586.06;5091038;28;20024;-75
2022/05/16 05:25:29;;;;;;;14.20;10.07;;;;;;;-144.47;100.00;61586.06;5091315;28;20468;-82
2022/05/16 05:27:59;;;;;;;12.88;10.10;;;;;;;-144.47;100.00;61586.06;5091226;28;20496;-83
2022/05/16 05:30:25;;;;;;;14.80;10.48;;;;;;;-144.47;100.00;61586.06;5093332;28;20028;-81
2022/05/16 05:32:52;;;;;;;11.05;9.93;;;;;;;17.76;100.00;61586.06;5092385;28;20103;-82
2022/05/16 05:35:19;;;;;;;11.38;10.00;;;;;;;-144.47;100.00;61586.06;5092212;28;20024;-84
2022/05/16 05:37:46;;;;;;;13.05;10.98;;;;;;;-144.47;100.00;61586.06;5090811;28;20351;-80
2022/05/16 05:40:13;;;;;;;15.32;11.98;;;;;;;-144.47;100.00;61586.06;5091234;28;20032;-82
2022/05/16 05:42:38;;;;;;;15.30;12.57;;;;;;;-144.47;100.00;61586.06;5090651;28;20089;-81
2022/05/16 05:45:06;;;;;;;19.30;12.98;;;;;;;17.94;100.00;61586.06;4736038;28;10000497;-80
2022/05/16 05:47:32;;;;;;;17.67;12.60;;;;;;;-144.47;100.00;61586.06;5083063;28;20119;-80
2022/05/16 05:49:59;;;;;;;14.07;12.55;;;;;;;-144.47;100.00;61586.06;5086118;28;20577;-79
2022/05/16 05:52:28;;;;;;;14.70;13.18;;;;;;;-144.47;100.00;61586.06;5088707;28;20032;-80
2022/05/16 05:54:54;;;;;;;15.10;13.38;;;;;;;-144.47;100.00;61586.06;5088222;28;20079;-77
2022/05/16 05:57:20;;;;;;;16.90;12.80;;;;;;;-144.47;100.00;61586.06;5087958;28;20610;-82
2022/05/16 05:59:45;;;;;;;14.15;12.82;;;;;;;-144.47;100.00;61586.06;5088472;28;20119;-84
2022/05/16 06:02:11;;;;;;;15.63;13.25;;;;;;;-144.47;100.00;61586.06;5108651;28;20066;-80
2022/05/16 06:04:38;;;;;;;13.73;12.02;;;;;;;18.67;100.00;61586.06;5091562;28;20054;-83
2022/05/16 06:07:04;;;;;;;14.18;12.70;;;;;;;18.75;100.00;81447.84;5087339;28;20032;-81
2022/05/16 06:09:30;;;;;;;15.37;13.30;;;;;;;-144.47;100.00;61586.06;4732655;28;10000076;-83
2022/05/16 06:11:58;;;;;;;16.00;12.90;;;;;;;-144.47;100.00;61586.06;5090459;28;20075;-86
2022/05/16 06:14:26;;;;;;;16.38;12.27;;;;;;;-144.47;100.00;61586.06;5092739;28;20055;-90
2022/05/16 06:16:53;;;;;;;14.43;11.95;;;;;;;-144.47;100.00;61586.06;5093146;28;20059;-89
2022/05/16 06:19:18;;;;;;;15.27;12.23;;;;;;;-144.47;100.00;61586.06;5095973;28;20380;-89
2022/05/16 06:21:44;;;;;;;15.45;12.80;;;;;;;-144.47;100.00;61586.06;5094803;28;20020;-89
2022/05/16 06:25:31;;;;;;;14.32;12.52;;;;;;;-144.47;100.00;61586.06;5093053;28;20028;-88
2022/05/16 06:26:55;;;;;;;16.27;12.90;;;;;;;18.99;100.00;61586.06;5094804;28;20036;-90
2022/05/16 06:29:21;;;;;;;15.45;12.15;;;;;;;-144.47;100.00;61586.06;5095393;28;20372;-88
2022/05/16 06:31:46;;;;;;;16.55;13.00;;;;;;;-144.47;100.00;61586.06;5093632;28;20071;-88
2022/05/16 06:34:12;;;;;;;13.13;11.82;;;;;;;187.31;100.00;61586.06;5093965;28;20036;-89
2022/05/16 06:36:37;;;;;;;13.82;12.48;;;;;;;-144.47;100.00;61586.06;5093305;28;20032;-91
2022/05/16 06:39:03;;;;;;;13.90;12.30;;;;;;;-144.47;100.00;61586.06;5092877;28;20032;-89
2022/05/16 06:41:32;;;;;;;13.50;11.98;;;;;;;187.31;100.00;61586.06;5094039;28;20040;-89
2022/05/16 06:43:57;;;;;;;12.57;11.23;;;;;;;-144.47;100.00;61586.06;5093830;28;20429;-88
2022/05/16 06:46:22;;;;;;;16.70;12.30;;;;;;;187.31;100.00;61586.06;5096709;28;20039;-88
2022/05/16 06:48:48;;;;;;;12.70;11.50;;;;;;;187.31;100.00;61586.06;5098385;28;20387;-88
2022/05/16 06:51:13;;;;;;;14.75;11.93;;;;;;;19.66;100.00;61586.06;5096808;28;20096;-89
2022/05/16 06:53:39;;;;;;;13.38;11.57;;;;;;;187.31;100.00;61586.06;5093832;28;20028;-90
2022/05/16 06:56:04;;;;;;;13.65;11.45;;;;;;;187.31;100.00;61586.06;5095426;28;20066;-89
2022/05/16 06:58:30;;;;;;;13.18;11.75;;;;;;;187.31;100.00;61586.06;5095140;28;20067;-88
2022/05/16 07:00:56;;;;;;;17.02;10.88;;;;;;;187.31;100.00;61586.06;5094361;28;20069;-89
2022/05/16 07:03:22;;;;;;;15.77;10.40;;;;;;;-144.47;100.00;61586.06;5092577;28;20024;-89
2022/05/16 07:05:49;;;;;;;11.60;10.52;;;;;;;-144.47;100.00;61586.06;5101372;28;20039;-90
2022/05/16 07:08:16;;;;;;;12.52;10.75;;;;;;;-144.47;100.00;61586.06;5117689;28;20069;-91
2022/05/16 07:10:41;;;;;;;12.95;10.48;;;;;;;-144.47;100.00;61586.06;5116639;28;20027;-91
2022/05/16 07:13:08;;;;;;;14.18;9.68;;;;;;;-144.47;100.00;61586.06;5116237;28;20020;-89
2022/05/16 07:15:34;;;;;;;12.52;9.23;;;;;;;-144.47;100.00;61586.06;5115935;28;20032;-89
2022/05/16 07:18:00;;;;;;;12.52;9.65;;;;;;;-144.47;100.00;61586.06;5109407;28;20080;-89
2022/05/16 07:20:25;;;;;;;9.95;8.98;;;;;;;-144.47;100.00;61586.06;5107077;28;20044;-87
2022/05/16 07:22:51;;;;;;;9.80;8.90;;;;;;;-144.47;100.00;61586.06;5096347;28;20048;-85
2022/05/16 07:25:19;;;;;;;12.38;9.32;;;;;;;20.41;100.00;61586.06;5102226;28;20072;-86
2022/05/16 07:27:57;;;;;;;11.05;9.18;;;;;;;-144.47;100.00;61586.06;5118081;28;20008;-89
2022/05/16 07:30:42;;;;;;;9.32;7.20;;;;;;;-144.47;100.00;61586.06;5097702;28;20035;-88
2022/05/16 07:33:08;;;;;;;9.25;6.32;;;;;;;-144.47;100.00;61586.06;5091499;28;20483;-85
2022/05/16 07:35:35;;;;;;;7.80;6.07;;;;;;;-144.47;100.00;61586.06;5093341;28;20039;-85
2022/05/16 07:38:00;;;;;;;7.20;6.50;;;;;;;-144.47;100.00;61586.06;5091419;28;20032;-85
2022/05/16 07:40:30;;;;;;;11.18;6.50;;;;;;;21.05;100.00;61586.06;5093384;28;20482;-84
2022/05/16 07:42:56;;;;;;;9.68;5.63;;;;;;;-144.47;100.00;61586.06;5093026;28;20082;-83
2022/05/16 07:45:22;;;;;;;6.50;5.70;;;;;;;-144.47;100.00;61586.06;5093070;28;20044;-88
2022/05/16 07:47:48;;;;;;;6.22;5.45;;;;;;;187.31;100.00;61586.06;5092702;28;20032;-85
2022/05/16 07:50:14;;;;;;;6.28;4.60;;;;;;;-144.47;100.00;61586.06;5093837;28;20028;-85
2022/05/16 07:52:45;;;;;;;7.25;5.40;;;;;;;-144.47;100.00;61586.06;5093168;28;20085;-85
2022/05/16 07:55:11;;;;;;;6.65;5.97;;;;;;;-144.47;100.00;61586.06;5093494;28;20028;-86
2022/05/16 07:57:36;;;;;;;10.02;6.88;;;;;;;-144.47;100.00;61586.06;5092968;28;20596;-87
2022/05/16 08:00:03;;;;;;;6.13;5.53;;;;;;;21.36;100.00;93103.69;5089319;28;20040;-87
2022/05/16 08:02:38;;;;;;;6.10;5.40;;;;;;;-144.47;100.00;61586.06;5090066;28;20036;-88
2022/05/16 08:05:04;;;;;;;11.73;5.82;;;;;;;-144.47;100.00;61586.06;5089772;28;20039;-89
2022/05/16 08:07:29;;;;;;;5.95;5.15;;;;;;;-144.47;100.00;61586.06;5094566;28;20032;-86
2022/05/16 08:12:39;;;;;;;7.63;5.63;;;;;;;-144.47;100.00;61586.06;5090080;28;20495;-85
2022/05/16 08:15:05;;;;;;;7.32;5.45;;;;;;;-144.47;100.00;61586.06;5093256;28;20062;-88
2022/05/16 08:17:31;;;;;;;7.25;4.82;;;;;;;-144.47;100.00;61586.06;5095043;28;20428;-87
2022/05/16 08:19:57;;;;;;;5.82;4.97;;;;;;;-144.47;100.00;61586.06;5099067;28;20286;-85
2022/05/16 08:22:31;;;;;;;6.07;5.43;;;;;;;-144.47;100.00;61586.06;5096784;28;20039;-84
2022/05/16 08:24:57;;;;;;;8.45;6.07;;;;;;;-144.47;100.00;61586.06;5098968;28;20070;-86
2022/05/16 08:27:23;;;;;;;6.20;4.93;;;;;;;-144.47;100.00;61586.06;5094011;28;20086;-84
2022/05/16 08:29:49;;;;;;;4.82;4.43;;;;;;;-144.47;100.00;61586.06;5090894;28;20039;-87
2022/05/16 08:32:15;;;;;;;4.70;4.30;;;;;;;-144.47;100.00;61586.06;5093146;28;20032;-88
2022/05/16 08:34:45;;;;;;;6.00;4.30;;;;;;;22.21;100.00;61586.06;5092583;28;20035;-88
2022/05/16 08:40:03;;;;;;;7.68;5.60;;;;;;;22.31;100.00;61586.06;5094673;28;20032;-90
2022/05/16 08:42:35;;;;;;;6.10;5.15;;;;;;;-144.47;100.00;61586.06;5094805;28;20055;-86
2022/05/16 08:45:22;;;;;;;9.05;5.40;;;;;;;-144.47;100.00;61586.06;5091852;28;20107;-86
2022/05/16 08:47:59;;;;;;;6.90;5.32;;;;;;;-144.47;100.00;61586.06;5091821;28;20048;-87
2022/05/16 08:50:45;;;;;;;6.82;5.88;;;;;;;-144.47;100.00;61586.06;5095313;28;20074;-87
2022/05/16 08:53:15;;;;;;;7.70;5.45;;;;;;;-144.47;100.00;61586.06;5091920;28;20036;-89
2022/05/16 08:55:45;;;;;;;6.73;5.20;;;;;;;-144.47;100.00;61586.06;5092704;28;20032;-85
2022/05/16 08:58:14;;;;;;;5.97;5.38;;;;;;;-144.47;100.00;61586.06;5093345;28;20097;-84
2022/05/16 09:00:48;;;;;;;5.45;4.95;;;;;;;-144.47;100.00;61586.06;5091156;28;20024;-86
2022/05/16 09:03:26;;;;;;;7.78;5.35;;;;;;;-144.47;100.00;61586.06;5091888;28;20046;-85
2022/05/16 09:06:03;;;;;;;7.15;6.28;;;;;;;-144.47;100.00;61586.06;5092002;28;20040;-87
2022/05/16 09:08:35;;;;;;;10.13;5.28;;;;;;;-144.47;100.00;61586.06;5091465;28;20050;-89
2022/05/16 09:11:08;;;;;;;9.80;5.25;;;;;;;-144.47;100.00;61586.06;5091329;28;20484;-85
2022/05/16 09:13:51;;;;;;;5.50;5.00;;;;;;;-144.47;100.00;61586.06;5086416;28;20028;-81
2022/05/16 09:16:52;;;;;;;5.75;4.88;;;;;;;-144.47;100.00;61586.06;5089635;28;20045;-85
2022/05/16 09:20:01;;;;;;;5.78;4.63;;;;;;;104.25;100.00;61586.06;5094730;28;20448;-89
2022/05/16 09:22:27;;;;;;;6.05;4.93;;;;;;;62.74;100.00;61586.06;5091315;28;20043;-88
2022/05/16 09:25:04;;;;;;;6.65;5.10;;;;;;;62.74;100.00;61586.06;5090771;28;20047;-87
2022/05/16 09:30:25;;;;;;;6.22;5.40;;;;;;;42.00;100.00;61586.06;5090128;28;20032;-86
2022/05/16 09:33:15;;;;;;;7.85;4.93;;;;;;;62.74;100.00;61586.06;5090907;28;20039;-85
2022/05/16 09:35:51;;;;;;;6.22;5.13;;;;;;;31.63;100.00;61586.06;5091994;28;20032;-84
2022/05/16 09:38:18;;;;;;;6.18;4.90;;;;;;;104.25;100.00;61586.06;5094565;28;20036;-85
2022/05/16 09:40:59;;;;;;;7.22;5.97;;;;;;;104.25;100.00;61586.06;5094242;28;20104;-85
2022/05/16 09:43:29;;;;;;;10.35;5.95;;;;;;;62.74;100.00;61586.06;5091363;28;20043;-84
2022/05/16 09:46:10;;;;;;;5.93;5.43;;;;;;;187.31;100.00;61586.06;5090820;28;20028;-86
2022/05/16 09:48:37;;;;;;;12.65;5.10;;;;;;;62.74;100.00;61586.06;5087640;28;20028;-85
2022/05/16 09:51:05;;;;;;;6.18;5.10;;;;;;;62.74;100.00;61586.06;5091123;28;20032;-85
2022/05/16 09:53:38;;;;;;;7.88;5.68;;;;;;;62.74;100.00;61586.06;5090603;28;20436;-85
2022/05/16 09:56:21;;;;;;;6.72;5.25;;;;;;;25.15;100.00;61586.06;5086777;28;20024;-85
2022/05/16 09:58:50;;;;;;;9.35;5.13;;;;;;;62.74;100.00;61586.06;5104191;28;20079;-73
2022/05/16 10:01:53;;;;;;;10.32;4.95;;;;;;;24.02;100.00;61586.06;5089817;28;20032;-72
2022/05/16 10:04:21;;;;;;;7.43;4.88;;;;;;;62.74;100.00;61586.06;5083422;28;20639;-72
2022/05/16 10:07:02;;;;;;;9.10;5.68;;;;;;;62.74;100.00;61586.06;5096279;28;20490;-72
2022/05/16 10:09:33;;;;;;;7.75;4.95;;;;;;;-144.47;100.00;61586.06;5088809;28;20048;-72
2022/05/16 10:12:00;;;;;;;7.63;4.35;;;;;;;-144.47;100.00;61586.06;5095128;28;20088;-72
2022/05/16 10:14:26;;;;;;;8.23;5.15;;;;;;;-144.47;100.00;61586.06;5093789;28;20032;-72
2022/05/16 10:16:53;;;;;;;7.90;5.95;;;;;;;-144.47;100.00;61586.06;5092471;28;20036;-71
2022/05/16 10:19:24;;;;;;;8.60;5.05;;;;;;;-144.47;100.00;61586.06;5092949;28;20154;-72
2022/05/16 10:21:51;;;;;;;;;;;;;;;-144.47;100.00;61586.06;5094683;28;20059;-71
2022/05/16 10:24:18;;;;;;;7.10;5.10;;;;;;;-144.47;100.00;61586.06;5094966;28;19966;-71
2022/05/16 10:26:48;;;;;;;8.43;5.40;;;;;;;-144.47;100.00;61586.06;5092792;28;20035;-72
2022/05/16 10:29:27;;;;;;;6.95;5.22;;;;;;;-144.47;100.00;61586.06;5089961;28;20040;-71
2022/05/16 10:34:57;;;;;;;5.82;4.53;;;;;;;-144.47;100.00;61586.06;5093680;28;20399;-71
2022/05/16 10:37:25;;;;;;;8.60;4.97;;;;;;;-144.47;100.00;61586.06;5096420;28;20031;-70
2022/05/16 10:40:06;;;;;;;5.20;4.80;;;;;;;-144.47;100.00;61586.06;5099372;28;20454;-73
2022/05/16 10:42:38;;;;;;;9.70;4.72;;;;;;;-144.47;100.00;61586.06;5095918;28;20111;-71
2022/05/16 10:45:14;;;;;;;9.18;5.40;;;;;;;-144.47;100.00;61586.06;5089329;28;20036;-71
2022/05/16 10:47:50;;;;;;;5.85;4.20;;;;;;;-144.47;100.00;61586.06;5089559;28;20454;-73
2022/05/16 10:50:27;;;;;;;5.80;4.85;;;;;;;-144.47;100.00;61586.06;5093585;28;20228;-71
2022/05/16 10:53:01;;;;;;;8.02;5.15;;;;;;;-144.47;100.00;61586.06;5091576;28;20373;-72
2022/05/16 10:55:34;;;;;;;6.43;4.53;;;;;;;25.82;100.00;61586.06;5093389;28;20499;-72
2022/05/16 10:58:21;;;;;;;7.28;4.80;;;;;;;-144.47;100.00;61586.06;5093000;28;20050;-72
2022/05/16 11:00:57;;;;;;;10.15;5.10;;;;;;;-144.47;100.00;61586.06;5106411;28;20501;-72
2022/05/16 11:03:29;;;;;;;9.50;4.93;;;;;;;-144.47;100.00;61586.06;5092902;28;20028;-71
2022/05/16 11:06:35;;;;;;;4.90;4.40;;;;;;;-144.47;100.00;61586.06;5094198;28;20163;-72
2022/05/16 11:09:17;;;;;;;7.30;4.95;;;;;;;-144.47;100.00;61586.06;5092669;28;20491;-71
2022/05/16 11:11:56;;;;;;;7.05;4.47;;;;;;;-144.47;100.00;61586.06;5091293;28;20032;-72
2022/05/16 11:14:48;;;;;;;9.02;4.93;;;;;;;-144.47;100.00;61586.06;5093639;28;20058;-72
2022/05/16 11:17:42;;;;;;;7.07;4.95;;;;;;;-144.47;100.00;61586.06;5090579;28;20085;-72
2022/05/16 11:20:29;;;;;;;8.52;4.45;;;;;;;25.74;100.00;87415.34;5093126;28;20100;-71
2022/05/16 11:23:02;;;;;;;9.10;4.80;;;;;;;-144.47;100.00;61586.06;5093150;28;20028;-72
2022/05/16 11:25:50;;;;;;;6.50;4.47;;;;;;;-144.47;100.00;61586.06;5093357;28;20032;-71
2022/05/16 11:28:22;;;;;;;6.15;5.05;;;;;;;-144.47;100.00;61586.06;5091083;28;20032;-71
2022/05/16 11:31:14;;;;;;;5.40;4.90;;;;;;;-144.47;100.00;61586.06;5092843;28;20032;-71
2022/05/16 11:33:52;;;;;;;9.32;5.00;;;;;;;-144.47;100.00;61586.06;5090325;28;20372;-70
2022/05/16 11:36:45;;;;;;;6.45;4.80;;;;;;;-144.47;100.00;61586.06;5093205;28;20028;-72
2022/05/16 11:39:22;;;;;;;7.30;4.75;;;;;;;-144.47;100.00;61586.06;5089751;28;20622;-71
2022/05/16 11:42:24;;;;;;;12.10;5.03;;;;;;;-144.47;100.00;61586.06;5089802;28;20161;-71